createdAt,value
2017-11-26T00:01:17.593Z,27.95
2017-11-26T00:03:46.553Z,41.67
2017-11-26T00:06:14.124Z,37.47
2017-11-26T00:08:41.720Z,32.13
2017-11-26T00:11:10.049Z,39.67
2017-11-26T00:13:37.850Z,40.30
2017-11-26T00:16:05.443Z,35.00
2017-11-26T00:18:33.032Z,34.80
2017-11-26T00:21:00.629Z,28.98
2017-11-26T00:23:28.966Z,31.60
2017-11-26T00:25:56.566Z,37.67
2017-11-26T00:28:24.141Z,21.27
2017-11-26T00:30:52.514Z,30.15
2017-11-26T00:33:20.081Z,40.20
2017-11-26T00:35:48.443Z,47.57
2017-11-26T00:38:16.021Z,39.80
2017-11-26T00:40:46.222Z,27.42
2017-11-26T00:43:13.789Z,47.25
2017-11-26T00:45:43.785Z,39.90
2017-11-26T00:48:11.382Z,27.50
2017-11-26T00:50:39.713Z,36.20
2017-11-26T00:53:07.316Z,34.17
2017-11-26T00:55:34.889Z,42.28
2017-11-26T00:58:03.265Z,31.55
2017-11-26T01:00:31.605Z,39.60
2017-11-26T01:02:59.176Z,35.67
2017-11-26T01:05:26.767Z,40.60
2017-11-26T01:07:54.365Z,50.87
2017-11-26T01:10:21.973Z,33.83
2017-11-26T01:12:49.536Z,33.67
2017-11-26T01:15:17.129Z,52.67
2017-11-26T01:17:46.577Z,63.03
2017-11-26T01:20:14.165Z,41.57
2017-11-26T01:22:43.853Z,56.23
2017-11-26T01:25:11.445Z,53.53
2017-11-26T01:27:39.782Z,59.40
2017-11-26T01:30:07.358Z,44.93
2017-11-26T01:32:34.959Z,53.53
2017-11-26T01:35:02.537Z,51.75
2017-11-26T01:37:30.120Z,57.90
2017-11-26T01:39:57.690Z,48.80
2017-11-26T01:42:25.281Z,42.00
2017-11-26T01:44:52.844Z,53.25
2017-11-26T01:47:20.438Z,56.77
2017-11-26T01:49:48.001Z,37.75
2017-11-26T01:52:15.621Z,43.63
2017-11-26T01:54:45.609Z,40.17
2017-11-26T01:57:13.356Z,32.63
2017-11-26T01:59:40.917Z,35.33
2017-11-26T02:02:08.486Z,22.10
2017-11-26T02:04:36.817Z,27.77
2017-11-26T02:07:05.163Z,24.27
2017-11-26T02:09:32.737Z,48.40
2017-11-26T02:12:00.568Z,41.57
2017-11-26T02:14:28.437Z,30.77
2017-11-26T02:16:56.101Z,31.37
2017-11-26T02:19:23.968Z,32.07
2017-11-26T02:21:51.591Z,27.90
2017-11-26T02:24:19.964Z,43.57
2017-11-26T02:26:47.549Z,31.77
2017-11-26T02:29:15.117Z,28.27
2017-11-26T02:31:56.740Z,27.67
2017-11-26T02:34:36.269Z,20.30
2017-11-26T02:37:03.866Z,19.27
2017-11-26T02:39:32.196Z,23.77
2017-11-26T02:41:59.964Z,11.90
2017-11-26T02:44:27.553Z,21.23
2017-11-26T02:46:55.143Z,20.93
2017-11-26T02:49:23.473Z,21.93
2017-11-26T02:51:51.069Z,22.83
2017-11-26T02:54:18.641Z,29.90
2017-11-26T02:56:47.014Z,25.27
2017-11-26T02:59:15.349Z,27.17
2017-11-26T03:01:44.876Z,22.90
2017-11-26T03:04:12.451Z,29.43
2017-11-26T03:06:40.046Z,19.40
2017-11-26T03:09:07.617Z,37.10
2017-11-26T03:11:35.213Z,37.70
2017-11-26T03:14:02.782Z,26.20
2017-11-26T03:16:30.377Z,28.60
2017-11-26T03:18:58.732Z,20.50
2017-11-26T03:21:26.349Z,26.60
2017-11-26T03:23:53.921Z,26.58
2017-11-26T03:26:21.521Z,19.23
2017-11-26T03:28:49.368Z,28.45
2017-11-26T03:31:16.942Z,27.17
2017-11-26T03:33:45.548Z,31.30
2017-11-26T03:36:13.894Z,22.80
2017-11-26T03:38:41.493Z,37.53
2017-11-26T03:41:09.098Z,29.90
2017-11-26T03:43:36.689Z,23.30
2017-11-26T03:46:04.264Z,29.33
2017-11-26T03:48:32.222Z,29.30
2017-11-26T03:51:00.632Z,31.63
2017-11-26T03:53:28.968Z,26.83
2017-11-26T03:55:56.565Z,23.77
2017-11-26T03:58:24.902Z,33.83
2017-11-26T04:00:52.498Z,21.57
2017-11-26T04:03:20.833Z,32.00
2017-11-26T04:05:48.429Z,31.43
2017-11-26T04:08:15.998Z,36.73
2017-11-26T04:10:45.701Z,22.73
2017-11-26T04:13:13.274Z,26.47
2017-11-26T04:15:41.745Z,39.50
2017-11-26T04:18:09.318Z,18.67
2017-11-26T04:20:37.682Z,17.53
2017-11-26T04:23:05.278Z,13.93
2017-11-26T04:25:33.184Z,23.00
2017-11-26T04:28:00.761Z,22.65
2017-11-26T04:30:29.836Z,25.37
2017-11-26T04:32:57.465Z,23.73
2017-11-26T04:35:25.048Z,20.00
2017-11-26T04:37:52.630Z,27.27
2017-11-26T04:40:20.259Z,40.93
2017-11-26T04:42:47.876Z,28.83
2017-11-26T04:45:15.542Z,21.97
2017-11-26T04:47:44.825Z,30.90
2017-11-26T04:50:12.393Z,34.73
2017-11-26T04:52:39.960Z,25.57
2017-11-26T04:55:07.554Z,17.77
2017-11-26T04:57:35.117Z,14.37
2017-11-26T05:00:02.714Z,21.55
2017-11-26T05:02:30.281Z,19.37
2017-11-26T05:04:57.873Z,19.00
2017-11-26T05:07:26.245Z,14.93
2017-11-26T05:09:53.901Z,20.27
2017-11-26T05:12:21.466Z,19.97
2017-11-26T05:14:49.840Z,16.98
2017-11-26T05:17:17.429Z,17.37
2017-11-26T05:19:45.812Z,20.45
2017-11-26T05:22:14.145Z,13.20
2017-11-26T05:24:41.741Z,26.53
2017-11-26T05:27:10.077Z,22.20
2017-11-26T05:29:37.698Z,24.43
2017-11-26T05:32:05.279Z,23.93
2017-11-26T05:34:32.891Z,21.35
2017-11-26T05:37:01.233Z,29.17
2017-11-26T05:39:28.829Z,23.37
2017-11-26T05:41:56.423Z,21.53
2017-11-26T05:44:23.992Z,27.00
2017-11-26T05:46:51.577Z,15.17
2017-11-26T05:49:19.136Z,27.57
2017-11-26T05:51:46.733Z,25.73
2017-11-26T05:54:14.293Z,28.07
2017-11-26T05:56:41.893Z,29.57
2017-11-26T05:59:09.457Z,22.10
2017-11-26T06:01:37.049Z,20.07
2017-11-26T06:04:04.622Z,30.17
2017-11-26T06:06:32.213Z,25.17
2017-11-26T06:09:00.547Z,14.10
2017-11-26T06:11:28.141Z,23.33
2017-11-26T06:13:55.709Z,18.97
2017-11-26T06:16:24.065Z,24.43
2017-11-26T06:18:51.746Z,17.00
2017-11-26T06:21:20.110Z,25.63
2017-11-26T06:23:47.685Z,26.33
2017-11-26T06:26:15.273Z,24.17
2017-11-26T06:28:44.716Z,20.80
2017-11-26T06:31:12.816Z,15.97
2017-11-26T06:33:40.391Z,27.37
2017-11-26T06:36:08.724Z,17.80
2017-11-26T06:38:36.309Z,17.63
2017-11-26T06:41:03.881Z,15.32
2017-11-26T06:43:31.477Z,20.53
2017-11-26T06:45:59.056Z,29.60
2017-11-26T06:48:26.646Z,24.53
2017-11-26T06:50:54.218Z,16.27
2017-11-26T06:53:21.813Z,20.90
2017-11-26T06:55:49.381Z,16.02
2017-11-26T06:58:17.005Z,25.23
2017-11-26T07:00:46.681Z,23.48
2017-11-26T07:03:14.274Z,26.87
2017-11-26T07:05:41.841Z,26.27
2017-11-26T07:08:09.461Z,26.67
2017-11-26T07:10:37.021Z,17.40
2017-11-26T07:13:04.590Z,19.07
2017-11-26T07:15:32.182Z,16.63
2017-11-26T07:17:59.741Z,17.60
2017-11-26T07:20:27.338Z,16.17
2017-11-26T07:22:54.910Z,20.42
2017-11-26T07:25:22.497Z,16.40
2017-11-26T07:27:50.066Z,21.40
2017-11-26T07:30:17.840Z,23.37
2017-11-26T07:32:45.665Z,23.30
2017-11-26T07:35:13.234Z,13.37
2017-11-26T07:37:40.830Z,22.73
2017-11-26T07:40:08.393Z,17.50
2017-11-26T07:42:35.980Z,26.17
2017-11-26T07:45:04.318Z,16.23
2017-11-26T07:47:31.905Z,22.47
2017-11-26T07:50:00.242Z,19.60
2017-11-26T07:52:27.829Z,17.87
2017-11-26T07:54:55.397Z,13.75
2017-11-26T07:57:23.260Z,16.52
2017-11-26T07:59:50.833Z,14.53
2017-11-26T08:02:19.166Z,14.27
2017-11-26T08:04:46.756Z,12.87
2017-11-26T08:07:15.141Z,8.13
2017-11-26T08:09:44.833Z,11.20
2017-11-26T08:12:12.397Z,10.70
2017-11-26T08:14:39.985Z,13.47
2017-11-26T08:17:08.321Z,18.57
2017-11-26T08:19:35.949Z,15.17
2017-11-26T08:22:03.523Z,7.20
2017-11-26T08:24:31.090Z,12.40
2017-11-26T08:26:58.701Z,8.88
2017-11-26T08:29:26.358Z,11.90
2017-11-26T08:31:53.941Z,8.47
2017-11-26T08:34:22.271Z,15.63
2017-11-26T08:36:49.857Z,21.94
2017-11-26T08:39:17.416Z,13.40
2017-11-26T08:41:45.910Z,13.70
2017-11-26T08:44:14.250Z,27.00
2017-11-26T08:46:41.817Z,12.53
2017-11-26T08:49:09.408Z,10.07
2017-11-26T08:51:37.738Z,15.73
2017-11-26T08:54:06.165Z,10.90
2017-11-26T08:56:34.499Z,14.70
2017-11-26T08:59:02.095Z,19.30
2017-11-26T09:01:29.657Z,13.40
2017-11-26T09:03:57.260Z,13.30
2017-11-26T09:09:29.316Z,17.03
2017-11-26T09:11:56.893Z,19.93
2017-11-26T09:14:25.321Z,12.40
2017-11-26T09:16:52.885Z,8.30
2017-11-26T09:19:20.473Z,13.57
2017-11-26T09:21:48.037Z,12.93
2017-11-26T09:24:15.649Z,12.70
2017-11-26T09:26:44.807Z,9.25
2017-11-26T09:29:13.137Z,13.07
2017-11-26T09:31:40.729Z,9.70
2017-11-26T09:34:08.302Z,10.67
2017-11-26T09:36:36.660Z,5.72
2017-11-26T09:39:04.263Z,5.40
2017-11-26T09:41:31.865Z,6.25
2017-11-26T09:43:59.453Z,6.12
2017-11-26T09:46:27.422Z,8.40
2017-11-26T09:48:54.980Z,9.82
2017-11-26T09:51:22.645Z,9.87
2017-11-26T09:53:50.233Z,12.68
2017-11-26T09:56:18.561Z,8.63
2017-11-26T09:58:46.338Z,11.90
2017-11-26T10:01:13.896Z,7.73
2017-11-26T10:03:41.457Z,6.43
2017-11-26T10:06:09.042Z,4.50
2017-11-26T10:08:36.793Z,8.10
2017-11-26T10:11:04.357Z,14.13
2017-11-26T10:13:31.925Z,7.77
2017-11-26T10:15:59.525Z,7.27
2017-11-26T10:18:27.898Z,4.87
2017-11-26T10:20:55.490Z,8.47
2017-11-26T10:23:23.173Z,6.20
2017-11-26T10:25:50.757Z,15.77
2017-11-26T10:28:18.349Z,7.40
2017-11-26T10:30:45.917Z,6.03
2017-11-26T10:33:13.529Z,6.57
2017-11-26T10:35:41.111Z,2.57
2017-11-26T10:38:09.617Z,4.60
2017-11-26T10:40:37.194Z,5.33
2017-11-26T10:43:04.770Z,8.03
2017-11-26T10:45:32.382Z,9.20
2017-11-26T10:48:00.717Z,6.82
2017-11-26T10:50:28.301Z,3.50
2017-11-26T10:52:56.638Z,4.80
2017-11-26T10:55:24.221Z,10.50
2017-11-26T10:57:51.792Z,10.83
2017-11-26T11:00:19.457Z,4.27
2017-11-26T11:02:47.025Z,8.48
2017-11-26T11:05:14.609Z,5.27
2017-11-26T11:07:43.737Z,5.10
2017-11-26T11:10:12.021Z,6.23
2017-11-26T11:12:39.585Z,6.03
2017-11-26T11:15:07.385Z,5.73
2017-11-26T11:17:34.949Z,9.60
2017-11-26T11:20:03.477Z,3.58
2017-11-26T11:22:31.069Z,7.80
2017-11-26T11:24:58.853Z,5.97
2017-11-26T11:27:26.413Z,5.43
2017-11-26T11:29:54.748Z,6.73
2017-11-26T11:32:22.334Z,4.80
2017-11-26T11:34:49.923Z,3.73
2017-11-26T11:37:18.268Z,7.13
2017-11-26T11:39:46.289Z,3.97
2017-11-26T11:42:14.618Z,2.67
2017-11-26T11:44:43.184Z,3.00
2017-11-26T11:47:10.774Z,4.82
2017-11-26T11:49:38.341Z,5.60
2017-11-26T11:52:06.009Z,5.90
2017-11-26T11:54:33.573Z,5.93
2017-11-26T11:57:01.143Z,6.17
2017-11-26T11:59:28.754Z,3.13
2017-11-26T12:01:56.329Z,5.95
2017-11-26T12:04:24.709Z,4.07
2017-11-26T12:06:52.278Z,5.17
2017-11-26T12:09:20.049Z,8.80
2017-11-26T12:11:47.614Z,2.70
2017-11-26T12:14:15.178Z,4.13
2017-11-26T12:16:43.774Z,3.57
2017-11-26T12:19:12.105Z,5.30
2017-11-26T12:21:39.706Z,4.33
2017-11-26T12:24:08.040Z,4.40
2017-11-26T12:26:35.610Z,5.30
2017-11-26T12:29:03.201Z,11.57
2017-11-26T12:31:30.766Z,4.70
2017-11-26T12:33:58.349Z,4.70
2017-11-26T12:36:25.913Z,3.25
2017-11-26T12:38:53.652Z,2.70
2017-11-26T12:41:21.209Z,5.70
2017-11-26T12:43:48.770Z,2.97
2017-11-26T12:46:16.365Z,5.67
2017-11-26T12:48:45.626Z,8.00
2017-11-26T12:51:13.222Z,7.97
2017-11-26T12:53:40.784Z,5.93
2017-11-26T12:56:08.370Z,4.70
2017-11-26T12:58:35.948Z,3.33
2017-11-26T13:01:03.549Z,6.27
2017-11-26T13:03:31.878Z,4.87
2017-11-26T13:05:59.465Z,2.90
2017-11-26T13:08:27.026Z,3.20
2017-11-26T13:10:55.405Z,8.98
2017-11-26T13:13:22.962Z,6.30
2017-11-26T13:15:51.325Z,6.10
2017-11-26T13:18:18.908Z,4.93
2017-11-26T13:20:46.472Z,3.40
2017-11-26T13:23:14.058Z,7.17
2017-11-26T13:25:42.062Z,11.27
2017-11-26T13:28:09.645Z,4.87
2017-11-26T13:30:37.222Z,5.00
2017-11-26T13:33:05.613Z,10.80
2017-11-26T13:35:33.950Z,8.70
2017-11-26T13:38:01.544Z,3.92
2017-11-26T13:40:29.108Z,4.30
2017-11-26T13:42:56.736Z,9.80
2017-11-26T13:45:24.319Z,7.10
2017-11-26T13:47:51.904Z,3.80
2017-11-26T13:50:20.220Z,4.80
2017-11-26T13:52:47.837Z,3.03
2017-11-26T13:55:16.165Z,4.10
2017-11-26T13:57:45.677Z,6.53
2017-11-26T14:00:13.365Z,5.10
2017-11-26T14:02:40.937Z,3.45
2017-11-26T14:05:08.540Z,6.50
2017-11-26T14:07:36.112Z,4.20
2017-11-26T14:10:03.733Z,7.83
2017-11-26T14:12:32.063Z,5.13
2017-11-26T14:14:59.652Z,5.32
2017-11-26T14:17:27.218Z,8.93
2017-11-26T14:19:54.801Z,7.50
2017-11-26T14:22:23.191Z,4.60
2017-11-26T14:24:50.805Z,4.10
2017-11-26T14:27:18.377Z,4.27
2017-11-26T14:29:45.945Z,4.00
2017-11-26T14:32:14.297Z,5.83
2017-11-26T14:34:41.861Z,6.20
2017-11-26T14:37:09.451Z,9.03
2017-11-26T14:39:37.778Z,3.47
2017-11-26T14:42:05.432Z,9.13
2017-11-26T14:44:33.006Z,5.18
2017-11-26T14:47:00.612Z,4.07
2017-11-26T14:49:28.944Z,5.67
2017-11-26T14:51:56.505Z,5.97
2017-11-26T14:54:24.098Z,3.97
2017-11-26T14:56:51.692Z,3.33
2017-11-26T14:59:19.297Z,9.20
2017-11-26T15:01:46.862Z,5.80
2017-11-26T15:04:14.428Z,3.87
2017-11-26T15:06:43.017Z,3.03
2017-11-26T15:09:10.581Z,7.20
2017-11-26T15:11:38.165Z,4.50
2017-11-26T15:14:06.578Z,5.17
2017-11-26T15:16:34.164Z,2.50
2017-11-26T15:19:01.729Z,3.92
2017-11-26T15:21:29.312Z,9.70
2017-11-26T15:23:56.966Z,3.17
2017-11-26T15:26:24.549Z,4.57
2017-11-26T15:28:52.893Z,5.10
2017-11-26T15:31:20.753Z,10.23
2017-11-26T15:33:48.325Z,3.63
2017-11-26T15:36:16.202Z,4.70
2017-11-26T15:38:44.997Z,3.57
2017-11-26T15:41:12.563Z,5.00
2017-11-26T15:43:41.233Z,5.17
2017-11-26T15:46:08.805Z,4.43
2017-11-26T15:48:36.372Z,3.63
2017-11-26T15:51:04.724Z,3.10
2017-11-26T15:53:32.289Z,5.30
2017-11-26T15:55:59.878Z,3.30
2017-11-26T15:58:28.206Z,4.20
2017-11-26T16:00:55.841Z,4.62
2017-11-26T16:03:23.401Z,4.17
2017-11-26T16:05:50.965Z,2.15
2017-11-26T16:08:18.563Z,3.57
2017-11-26T16:10:46.126Z,6.13
2017-11-26T16:13:13.713Z,2.33
2017-11-26T16:15:42.144Z,4.83
2017-11-26T16:18:09.728Z,1.90
2017-11-26T16:20:37.288Z,2.53
2017-11-26T16:23:04.877Z,5.30
2017-11-26T16:25:33.206Z,6.00
2017-11-26T16:28:01.010Z,4.37
2017-11-26T16:30:28.597Z,5.30
2017-11-26T16:32:56.921Z,4.80
2017-11-26T16:35:24.510Z,4.20
2017-11-26T16:37:53.888Z,7.57
2017-11-26T16:40:21.473Z,2.43
2017-11-26T16:42:49.037Z,18.75
2017-11-26T16:45:16.625Z,2.50
2017-11-26T16:47:45.905Z,4.70
2017-11-26T16:50:13.498Z,3.53
2017-11-26T16:52:41.054Z,5.57
2017-11-26T16:55:08.669Z,3.20
2017-11-26T16:57:36.245Z,6.23
2017-11-26T17:00:03.821Z,4.05
2017-11-26T17:02:31.434Z,4.80
2017-11-26T17:04:59.002Z,7.70
2017-11-26T17:07:26.589Z,4.87
2017-11-26T17:09:54.157Z,4.55
2017-11-26T17:12:22.503Z,6.97
2017-11-26T17:14:50.065Z,2.28
2017-11-26T17:17:17.685Z,10.67
2017-11-26T17:19:46.733Z,3.20
2017-11-26T17:22:14.293Z,5.00
2017-11-26T17:24:41.876Z,4.28
2017-11-26T17:27:10.206Z,7.40
2017-11-26T17:29:37.789Z,5.50
2017-11-26T17:32:05.358Z,7.87
2017-11-26T17:34:32.950Z,4.50
2017-11-26T17:37:01.584Z,4.00
2017-11-26T17:39:29.202Z,8.87
2017-11-26T17:41:56.765Z,12.82
2017-11-26T17:44:24.325Z,13.40
2017-11-26T17:46:51.913Z,10.77
2017-11-26T17:49:19.472Z,2.07
2017-11-26T17:51:47.059Z,5.07
2017-11-26T17:54:14.668Z,7.83
2017-11-26T17:56:44.639Z,18.50
2017-11-26T17:59:12.309Z,6.57
2017-11-26T18:01:39.914Z,5.43
2017-11-26T18:04:07.533Z,4.20
2017-11-26T18:06:35.138Z,3.33
2017-11-26T18:09:02.700Z,5.70
2017-11-26T18:11:30.257Z,5.20
2017-11-26T18:13:57.842Z,6.10
2017-11-26T18:16:25.405Z,7.13
2017-11-26T18:18:52.989Z,4.13
2017-11-26T18:21:20.565Z,8.53
2017-11-26T18:23:48.160Z,17.23
2017-11-26T18:26:15.730Z,2.72
2017-11-26T18:28:45.005Z,6.60
2017-11-26T18:31:13.365Z,4.13
2017-11-26T18:33:40.927Z,2.57
2017-11-26T18:36:08.800Z,3.70
2017-11-26T18:38:37.129Z,4.73
2017-11-26T18:41:04.721Z,7.20
2017-11-26T18:43:32.323Z,4.60
2017-11-26T18:46:00.158Z,4.25
2017-11-26T18:48:27.717Z,9.23
2017-11-26T18:50:55.276Z,4.10
2017-11-26T18:53:22.857Z,6.37
2017-11-26T18:55:51.183Z,4.33
2017-11-26T18:58:18.777Z,3.75
2017-11-26T19:00:46.345Z,3.37
2017-11-26T19:03:14.730Z,4.27
2017-11-26T19:05:43.931Z,5.40
2017-11-26T19:08:12.299Z,6.30
2017-11-26T19:10:39.881Z,4.23
2017-11-26T19:13:08.218Z,10.13
2017-11-26T19:15:35.806Z,2.73
2017-11-26T19:18:03.412Z,3.90
2017-11-26T19:20:31.002Z,2.97
2017-11-26T19:22:58.612Z,7.20
2017-11-26T19:25:27.024Z,6.23
2017-11-26T19:27:54.592Z,4.55
2017-11-26T19:30:22.156Z,6.80
2017-11-26T19:32:49.745Z,5.50
2017-11-26T19:35:17.385Z,7.33
2017-11-26T19:37:45.781Z,6.15
2017-11-26T19:40:13.341Z,6.27
2017-11-26T19:42:43.356Z,11.13
2017-11-26T19:45:11.129Z,7.27
2017-11-26T19:47:39.500Z,8.27
2017-11-26T19:50:07.075Z,5.05
2017-11-26T19:52:34.661Z,22.73
2017-11-26T19:55:02.225Z,4.55
2017-11-26T19:57:29.820Z,6.55
2017-11-26T19:59:57.392Z,13.02
2017-11-26T20:02:25.005Z,8.50
2017-11-26T20:04:52.569Z,7.35
2017-11-26T20:07:20.167Z,6.93
2017-11-26T20:09:47.819Z,10.03
2017-11-26T20:12:15.391Z,10.47
2017-11-26T20:14:44.037Z,6.73
2017-11-26T20:17:11.597Z,6.10
2017-11-26T20:19:39.230Z,12.93
2017-11-26T20:22:06.835Z,7.40
2017-11-26T20:24:34.445Z,8.17
2017-11-26T20:27:02.008Z,6.50
2017-11-26T20:29:29.581Z,6.00
2017-11-26T20:31:57.933Z,9.93
2017-11-26T20:34:25.507Z,10.13
2017-11-26T20:36:53.097Z,8.03
2017-11-26T20:39:21.428Z,7.87
2017-11-26T20:41:49.030Z,11.93
2017-11-26T20:44:17.355Z,10.03
2017-11-26T20:46:46.789Z,5.20
2017-11-26T20:49:14.353Z,9.10
2017-11-26T20:51:41.939Z,9.20
2017-11-26T20:54:10.277Z,8.10
2017-11-26T20:56:37.886Z,7.83
2017-11-26T20:59:05.518Z,13.23
2017-11-26T21:01:33.091Z,9.10
2017-11-26T21:04:01.445Z,6.43
2017-11-26T21:06:29.017Z,8.27
2017-11-26T21:08:56.604Z,10.80
2017-11-26T21:11:24.928Z,11.47
2017-11-26T21:13:52.521Z,11.15
2017-11-26T21:16:20.083Z,11.30
2017-11-26T21:18:47.689Z,20.57
2017-11-26T21:21:15.469Z,11.13
2017-11-26T21:23:44.154Z,9.87
2017-11-26T21:26:12.056Z,7.93
2017-11-26T21:28:39.907Z,7.37
2017-11-26T21:31:07.564Z,7.50
2017-11-26T21:33:35.159Z,8.63
2017-11-26T21:36:03.540Z,11.50
2017-11-26T21:38:31.934Z,22.33
2017-11-26T21:41:00.290Z,15.53
2017-11-26T21:43:27.877Z,7.50
2017-11-26T21:45:56.202Z,6.50
2017-11-26T21:48:23.788Z,14.30
2017-11-26T21:50:52.281Z,8.68
2017-11-26T21:53:20.637Z,11.20
2017-11-26T21:55:48.202Z,10.10
2017-11-26T21:58:15.785Z,9.93
2017-11-26T22:00:43.981Z,13.77
2017-11-26T22:03:11.573Z,7.80
2017-11-26T22:05:39.149Z,11.97
2017-11-26T22:08:06.741Z,5.90
2017-11-26T22:10:35.074Z,6.00
2017-11-26T22:13:02.682Z,12.05
2017-11-26T22:15:31.010Z,8.13
2017-11-26T22:17:58.583Z,8.20
2017-11-26T22:20:26.204Z,17.57
2017-11-26T22:22:53.781Z,8.52
2017-11-26T22:25:21.364Z,12.83
2017-11-26T22:27:49.061Z,12.70
2017-11-26T22:30:16.649Z,12.60
2017-11-26T22:32:45.825Z,13.17
2017-11-26T22:35:14.197Z,12.57
2017-11-26T22:37:41.757Z,9.70
2017-11-26T22:40:10.848Z,17.90
2017-11-26T22:42:38.577Z,14.23
2017-11-26T22:45:06.941Z,6.80
2017-11-26T22:47:34.535Z,16.30
2017-11-26T22:50:02.100Z,11.02
2017-11-26T22:52:29.685Z,8.57
2017-11-26T22:54:57.252Z,12.60
2017-11-26T22:57:25.629Z,9.93
2017-11-26T22:59:54.026Z,9.27
2017-11-26T23:02:22.352Z,14.53
2017-11-26T23:04:49.937Z,7.28
2017-11-26T23:07:17.546Z,10.43
2017-11-26T23:09:45.953Z,15.95
2017-11-26T23:12:13.534Z,12.97
2017-11-26T23:14:41.142Z,9.20
2017-11-26T23:17:08.705Z,13.47
2017-11-26T23:19:36.328Z,13.00
2017-11-26T23:22:04.719Z,14.03
2017-11-26T23:24:33.090Z,8.90
2017-11-26T23:27:00.657Z,16.60
2017-11-26T23:29:29.033Z,10.53
2017-11-26T23:31:56.594Z,7.33
2017-11-26T23:34:24.970Z,15.30
2017-11-26T23:36:53.440Z,17.25
2017-11-26T23:39:21.050Z,13.50
2017-11-26T23:41:48.713Z,10.80
2017-11-26T23:44:16.437Z,10.93
2017-11-26T23:46:45.810Z,9.47
2017-11-26T23:49:13.377Z,16.53
2017-11-26T23:51:40.982Z,8.53
2017-11-26T23:54:09.622Z,14.67
2017-11-26T23:56:37.185Z,13.00
2017-11-26T23:59:04.806Z,8.20
